createdAt,value
2022-08-30T00:00:38.137Z,43.25
2022-08-30T00:01:14.212Z,43.08
2022-08-30T00:01:46.743Z,42.91
2022-08-30T00:02:19.584Z,43.23
2022-08-30T00:02:54.764Z,43.21
2022-08-30T00:03:27.612Z,43.05
2022-08-30T00:04:00.648Z,43.28
2022-08-30T00:04:35.613Z,43.21
2022-08-30T00:05:09.215Z,43.34
2022-08-30T00:05:42.140Z,43.54
2022-08-30T00:06:18.581Z,43.36
2022-08-30T00:06:51.006Z,43.15
2022-08-30T00:07:23.573Z,43.49
2022-08-30T00:07:58.491Z,43.50
2022-08-30T00:08:33.905Z,43.14
2022-08-30T00:09:06.201Z,43.05
2022-08-30T00:09:41.094Z,43.20
2022-08-30T00:10:13.453Z,43.23
2022-08-30T00:10:46.846Z,43.21
2022-08-30T00:11:26.122Z,43.27
2022-08-30T00:11:58.628Z,43.13
2022-08-30T00:12:32.903Z,43.11
2022-08-30T00:13:08.415Z,42.95
2022-08-30T00:13:43.042Z,43.14
2022-08-30T00:14:15.313Z,43.34
2022-08-30T00:14:50.355Z,43.22
2022-08-30T00:15:23.794Z,43.48
2022-08-30T00:15:56.532Z,43.20
2022-08-30T00:16:31.542Z,43.18
2022-08-30T00:17:04.098Z,43.04
2022-08-30T00:17:36.577Z,43.18
2022-08-30T00:18:12.227Z,43.40
2022-08-30T00:18:44.705Z,43.29
2022-08-30T00:19:16.990Z,43.29
2022-08-30T00:19:52.370Z,43.11
2022-08-30T00:20:27.918Z,43.25
2022-08-30T00:21:00.257Z,43.10
2022-08-30T00:21:35.294Z,42.99
2022-08-30T00:22:07.617Z,43.15
2022-08-30T00:22:40.166Z,43.09
2022-08-30T00:23:15.460Z,43.03
2022-08-30T00:23:50.562Z,43.15
2022-08-30T00:24:23.398Z,43.18
2022-08-30T00:25:00.820Z,43.06
2022-08-30T00:25:33.250Z,43.37
2022-08-30T00:26:09.283Z,43.04
2022-08-30T00:26:41.718Z,43.36
2022-08-30T00:27:14.166Z,43.05
2022-08-30T00:27:50.233Z,43.16
2022-08-30T00:28:22.561Z,43.16
2022-08-30T00:28:55.301Z,43.06
2022-08-30T00:29:30.368Z,43.15
2022-08-30T00:30:03.302Z,43.05
2022-08-30T00:30:35.953Z,43.12
2022-08-30T00:31:11.000Z,42.69
2022-08-30T00:31:47.570Z,42.98
2022-08-30T00:32:21.517Z,42.75
2022-08-30T00:32:56.951Z,42.83
2022-08-30T00:33:29.893Z,42.98
2022-08-30T00:34:02.318Z,43.11
2022-08-30T00:34:37.477Z,42.80
2022-08-30T00:35:13.074Z,42.88
2022-08-30T00:35:48.044Z,43.08
2022-08-30T00:36:21.324Z,43.30
2022-08-30T00:36:53.662Z,43.03
2022-08-30T00:37:28.609Z,43.15
2022-08-30T00:38:01.018Z,42.99
2022-08-30T00:38:33.333Z,43.01
2022-08-30T00:39:08.205Z,43.18
2022-08-30T00:39:43.182Z,43.25
2022-08-30T00:40:16.116Z,42.96
2022-08-30T00:40:48.548Z,42.94
2022-08-30T00:41:23.502Z,42.84
2022-08-30T00:41:55.865Z,42.70
2022-08-30T00:42:28.229Z,43.04
2022-08-30T00:43:05.767Z,42.99
2022-08-30T00:43:38.297Z,43.19
2022-08-30T00:44:10.610Z,42.67
2022-08-30T00:44:45.929Z,42.99
2022-08-30T00:45:20.807Z,42.86
2022-08-30T00:45:53.446Z,42.84
2022-08-30T00:46:28.430Z,43.05
2022-08-30T00:47:00.865Z,43.02
2022-08-30T00:47:33.225Z,43.27
2022-08-30T00:48:08.865Z,42.90
2022-08-30T00:48:43.888Z,43.01
2022-08-30T00:49:16.323Z,43.08
2022-08-30T00:49:54.901Z,42.86
2022-08-30T00:50:31.741Z,42.91
2022-08-30T00:51:06.311Z,43.38
2022-08-30T00:51:41.858Z,42.91
2022-08-30T00:52:14.682Z,43.11
2022-08-30T00:52:48.985Z,43.27
2022-08-30T00:53:27.041Z,42.89
2022-08-30T00:54:01.654Z,42.77
2022-08-30T00:54:37.594Z,43.02
2022-08-30T00:55:14.285Z,42.95
2022-08-30T00:55:46.920Z,42.94
2022-08-30T00:56:19.454Z,43.23
2022-08-30T00:56:55.602Z,43.07
2022-08-30T00:57:27.969Z,42.93
2022-08-30T00:58:04.299Z,43.13
2022-08-30T00:58:41.746Z,43.27
2022-08-30T00:59:14.266Z,43.28
2022-08-30T00:59:49.697Z,43.17
2022-08-30T01:00:24.758Z,42.85
2022-08-30T01:00:59.026Z,42.92
2022-08-30T01:01:34.116Z,43.19
2022-08-30T01:02:10.408Z,42.95
2022-08-30T01:02:43.088Z,42.87
2022-08-30T01:03:15.830Z,42.91
2022-08-30T01:03:51.753Z,42.87
2022-08-30T01:04:25.970Z,43.16
2022-08-30T01:04:58.456Z,42.89
2022-08-30T01:05:33.605Z,42.77
2022-08-30T01:06:07.692Z,42.97
2022-08-30T01:06:40.247Z,43.11
2022-08-30T01:07:16.998Z,42.89
2022-08-30T01:07:49.318Z,43.17
2022-08-30T01:08:22.293Z,42.95
2022-08-30T01:08:57.417Z,42.91
2022-08-30T01:09:30.146Z,43.28
2022-08-30T01:10:06.573Z,43.07
2022-08-30T01:10:41.709Z,43.34
2022-08-30T01:11:16.085Z,43.32
2022-08-30T01:11:48.846Z,43.13
2022-08-30T01:12:24.164Z,43.23
2022-08-30T01:12:56.654Z,43.25
2022-08-30T01:13:29.096Z,43.18
2022-08-30T01:14:04.551Z,43.34
2022-08-30T01:14:37.125Z,43.19
2022-08-30T01:15:14.563Z,43.33
2022-08-30T01:15:50.696Z,43.08
2022-08-30T01:16:23.486Z,43.46
2022-08-30T01:16:56.737Z,43.47
2022-08-30T01:17:32.085Z,43.08
2022-08-30T01:18:05.666Z,43.20
2022-08-30T01:18:42.907Z,43.22
2022-08-30T01:19:23.637Z,43.12
2022-08-30T01:19:59.366Z,43.49
2022-08-30T01:20:38.349Z,43.34
2022-08-30T01:21:16.308Z,42.88
2022-08-30T01:21:53.465Z,43.23
2022-08-30T01:22:28.889Z,43.25
2022-08-30T01:23:09.937Z,43.08
2022-08-30T01:23:47.492Z,43.40
2022-08-30T01:24:20.086Z,43.40
2022-08-30T01:24:54.487Z,43.35
2022-08-30T01:25:32.246Z,43.30
2022-08-30T01:26:06.146Z,43.18
2022-08-30T01:26:39.939Z,43.03
2022-08-30T01:27:14.865Z,43.31
2022-08-30T01:27:57.352Z,43.50
2022-08-30T01:28:33.000Z,43.61
2022-08-30T01:29:08.300Z,43.13
2022-08-30T01:29:40.841Z,43.25
2022-08-30T01:30:16.539Z,43.12
2022-08-30T01:30:48.952Z,43.40
2022-08-30T01:31:21.492Z,43.56
2022-08-30T01:31:56.513Z,43.47
2022-08-30T01:32:29.581Z,43.16
2022-08-30T01:33:04.090Z,43.27
2022-08-30T01:33:40.326Z,43.32
2022-08-30T01:34:13.065Z,43.32
2022-08-30T01:34:45.814Z,43.41
2022-08-30T01:35:23.030Z,43.24
2022-08-30T01:35:57.246Z,43.13
2022-08-30T01:36:29.627Z,43.39
2022-08-30T01:37:04.649Z,43.22
2022-08-30T01:37:37.649Z,43.00
2022-08-30T01:38:13.486Z,43.47
2022-08-30T01:38:50.890Z,43.34
2022-08-30T01:39:23.393Z,43.32
2022-08-30T01:39:56.200Z,42.81
2022-08-30T01:40:31.285Z,43.15
2022-08-30T01:41:10.498Z,43.01
2022-08-30T01:41:46.233Z,43.01
2022-08-30T01:42:18.633Z,43.29
2022-08-30T01:42:50.968Z,43.18
2022-08-30T01:43:26.730Z,43.35
2022-08-30T01:44:00.557Z,43.27
2022-08-30T01:44:32.870Z,43.22
2022-08-30T01:45:08.896Z,43.10
2022-08-30T01:45:41.327Z,43.02
2022-08-30T01:46:15.051Z,42.98
2022-08-30T01:46:50.840Z,43.01
2022-08-30T01:47:24.209Z,43.11
2022-08-30T01:47:56.529Z,43.02
2022-08-30T01:48:34.842Z,42.82
2022-08-30T01:49:11.273Z,43.35
2022-08-30T01:49:43.678Z,42.96
2022-08-30T01:50:18.705Z,43.18
2022-08-30T01:50:51.054Z,42.70
2022-08-30T01:51:24.897Z,42.88
2022-08-30T01:52:01.459Z,42.89
2022-08-30T01:52:35.275Z,43.25
2022-08-30T01:53:07.626Z,42.86
2022-08-30T01:53:49.831Z,43.00
2022-08-30T01:54:22.179Z,43.18
2022-08-30T01:54:59.689Z,42.80
2022-08-30T01:55:34.683Z,42.99
2022-08-30T01:56:07.758Z,43.27
2022-08-30T01:56:40.167Z,43.11
2022-08-30T01:57:18.272Z,43.03
2022-08-30T01:57:50.606Z,42.98
2022-08-30T01:58:23.430Z,43.01
2022-08-30T01:59:02.641Z,42.84
2022-08-30T01:59:35.945Z,42.72
2022-08-30T02:00:11.097Z,42.91
2022-08-30T02:00:48.889Z,42.85
2022-08-30T02:01:24.232Z,43.09
2022-08-30T02:02:00.229Z,42.74
2022-08-30T02:02:32.699Z,43.01
2022-08-30T02:03:05.319Z,42.70
2022-08-30T02:03:40.458Z,42.77
2022-08-30T02:04:14.609Z,42.66
2022-08-30T02:04:50.003Z,42.78
2022-08-30T02:05:22.414Z,42.38
2022-08-30T02:05:55.310Z,42.90
2022-08-30T02:06:28.120Z,42.54
2022-08-30T02:07:03.166Z,42.80
2022-08-30T02:07:35.483Z,42.80
2022-08-30T02:08:08.159Z,42.68
2022-08-30T02:08:43.835Z,42.70
2022-08-30T02:09:18.885Z,43.04
2022-08-30T02:09:51.651Z,42.54
2022-08-30T02:10:26.690Z,42.91
2022-08-30T02:10:59.845Z,42.65
2022-08-30T02:11:32.158Z,42.68
2022-08-30T02:12:07.817Z,42.44
2022-08-30T02:12:40.109Z,42.63
2022-08-30T02:13:12.395Z,42.30
2022-08-30T02:13:47.935Z,42.75
2022-08-30T02:14:21.182Z,42.62
2022-08-30T02:14:53.653Z,42.67
2022-08-30T02:15:28.647Z,42.82
2022-08-30T02:16:00.982Z,42.64
2022-08-30T02:16:33.864Z,42.53
2022-08-30T02:17:10.472Z,42.58
2022-08-30T02:17:42.889Z,42.67
2022-08-30T02:18:15.202Z,42.57
2022-08-30T02:18:50.125Z,42.63
2022-08-30T02:19:22.549Z,42.28
2022-08-30T02:19:54.857Z,42.80
2022-08-30T02:20:30.049Z,42.31
2022-08-30T02:21:02.674Z,42.63
2022-08-30T02:21:35.039Z,42.60
2022-08-30T02:22:10.396Z,42.62
2022-08-30T02:22:47.631Z,42.86
2022-08-30T02:23:24.361Z,42.34
2022-08-30T02:23:56.775Z,42.98
2022-08-30T02:24:32.046Z,42.72
2022-08-30T02:25:09.826Z,42.65
2022-08-30T02:25:53.701Z,42.51
2022-08-30T02:26:26.906Z,42.67
2022-08-30T02:27:01.838Z,42.39
2022-08-30T02:27:34.378Z,42.70
2022-08-30T02:28:06.812Z,42.67
2022-08-30T02:28:49.660Z,42.65
2022-08-30T02:29:23.650Z,42.36
2022-08-30T02:29:56.092Z,42.32
2022-08-30T02:30:31.127Z,42.62
2022-08-30T02:31:03.559Z,42.87
2022-08-30T02:31:35.982Z,42.74
2022-08-30T02:32:11.049Z,42.50
2022-08-30T02:32:43.360Z,42.67
2022-08-30T02:33:15.873Z,42.84
2022-08-30T02:33:51.505Z,42.92
2022-08-30T02:34:23.836Z,42.46
2022-08-30T02:34:56.206Z,42.65
2022-08-30T02:35:31.277Z,42.91
2022-08-30T02:36:04.010Z,42.36
2022-08-30T02:36:36.910Z,42.54
2022-08-30T02:37:11.952Z,42.41
2022-08-30T02:37:44.297Z,42.59
2022-08-30T02:38:19.960Z,42.77
2022-08-30T02:38:55.828Z,42.96
2022-08-30T02:39:28.183Z,42.82
2022-08-30T02:40:03.990Z,42.79
2022-08-30T02:40:39.134Z,42.74
2022-08-30T02:41:11.642Z,42.79
2022-08-30T02:41:44.015Z,42.42
2022-08-30T02:42:18.953Z,42.50
2022-08-30T02:42:51.698Z,42.58
2022-08-30T02:43:24.295Z,42.30
2022-08-30T02:44:00.701Z,42.63
2022-08-30T02:44:33.051Z,42.67
2022-08-30T02:45:06.390Z,42.94
2022-08-30T02:45:38.814Z,42.37
2022-08-30T02:46:13.894Z,42.69
2022-08-30T02:46:46.259Z,42.94
2022-08-30T02:47:18.586Z,42.57
2022-08-30T02:47:53.601Z,42.75
2022-08-30T02:48:25.922Z,42.83
2022-08-30T02:49:00.336Z,42.71
2022-08-30T02:49:40.790Z,42.87
2022-08-30T02:50:13.175Z,42.73
2022-08-30T02:50:48.178Z,42.66
2022-08-30T02:51:23.267Z,42.41
2022-08-30T02:51:55.570Z,42.58
2022-08-30T02:52:28.076Z,42.89
2022-08-30T02:53:03.053Z,42.30
2022-08-30T02:53:35.862Z,42.47
2022-08-30T02:54:09.250Z,42.61
2022-08-30T02:54:44.144Z,42.48
2022-08-30T02:55:19.692Z,42.53
2022-08-30T02:55:52.030Z,42.30
2022-08-30T02:56:28.787Z,42.49
2022-08-30T02:57:05.110Z,42.42
2022-08-30T02:57:38.033Z,42.46
2022-08-30T02:58:13.445Z,42.38
2022-08-30T02:58:45.996Z,42.38
2022-08-30T02:59:19.031Z,42.46
2022-08-30T02:59:54.037Z,42.46
2022-08-30T03:00:26.381Z,42.33
2022-08-30T03:00:59.708Z,42.59
2022-08-30T03:01:39.219Z,42.67
2022-08-30T03:02:11.981Z,42.57
2022-08-30T03:02:44.540Z,42.30
2022-08-30T03:03:19.795Z,42.33
2022-08-30T03:03:52.398Z,42.48
2022-08-30T03:04:26.689Z,42.55
2022-08-30T03:05:01.982Z,42.52
2022-08-30T03:05:35.278Z,42.36
2022-08-30T03:06:12.430Z,42.22
2022-08-30T03:06:47.399Z,42.63
2022-08-30T03:07:20.049Z,42.29
2022-08-30T03:07:52.455Z,42.48
2022-08-30T03:08:27.603Z,42.40
2022-08-30T03:08:59.926Z,42.28
2022-08-30T03:09:32.800Z,42.28
2022-08-30T03:10:08.430Z,42.07
2022-08-30T03:10:43.375Z,42.30
2022-08-30T03:11:15.746Z,42.62
2022-08-30T03:11:50.722Z,42.29
2022-08-30T03:12:23.142Z,42.23
2022-08-30T03:12:55.663Z,42.21
2022-08-30T03:13:30.627Z,42.00
2022-08-30T03:14:02.964Z,42.04
2022-08-30T03:14:36.369Z,42.17
2022-08-30T03:15:15.306Z,42.24
2022-08-30T03:15:50.524Z,42.48
2022-08-30T03:16:25.521Z,42.36
2022-08-30T03:16:58.201Z,42.41
2022-08-30T03:17:31.284Z,42.26
2022-08-30T03:18:06.301Z,42.19
2022-08-30T03:18:38.594Z,42.53
2022-08-30T03:19:10.885Z,42.01
2022-08-30T03:19:56.209Z,42.50
2022-08-30T03:20:28.831Z,42.21
2022-08-30T03:21:01.137Z,42.21
2022-08-30T03:21:39.665Z,42.23
2022-08-30T03:22:14.198Z,42.41
2022-08-30T03:22:48.470Z,42.29
2022-08-30T03:23:27.234Z,42.46
2022-08-30T03:23:59.485Z,42.21
2022-08-30T03:24:32.066Z,42.21
2022-08-30T03:25:06.001Z,42.42
2022-08-30T03:25:44.027Z,42.14
2022-08-30T03:26:20.237Z,41.82
2022-08-30T03:26:54.686Z,42.02
2022-08-30T03:27:31.492Z,41.98
2022-08-30T03:28:06.261Z,42.27
2022-08-30T03:28:39.113Z,42.24
2022-08-30T03:29:17.780Z,42.22
2022-08-30T03:29:51.858Z,42.14
2022-08-30T03:30:26.658Z,42.27
2022-08-30T03:31:02.563Z,42.33
2022-08-30T03:31:37.921Z,42.10
2022-08-30T03:32:28.731Z,41.96
2022-08-30T03:33:01.387Z,42.15
2022-08-30T03:33:34.042Z,42.39
2022-08-30T03:34:10.948Z,42.39
2022-08-30T03:34:43.274Z,41.95
2022-08-30T03:35:16.889Z,42.21
2022-08-30T03:35:51.898Z,42.43
2022-08-30T03:36:26.833Z,42.15
2022-08-30T03:37:01.421Z,42.34
2022-08-30T03:37:35.356Z,41.90
2022-08-30T03:38:10.562Z,41.78
2022-08-30T03:38:45.837Z,41.90
2022-08-30T03:39:21.502Z,41.91
2022-08-30T03:39:57.788Z,42.13
2022-08-30T03:40:38.448Z,42.14
2022-08-30T03:41:11.473Z,42.17
2022-08-30T03:41:49.013Z,42.28
2022-08-30T03:42:21.732Z,41.99
2022-08-30T03:42:58.941Z,42.10
2022-08-30T03:43:33.845Z,42.04
2022-08-30T03:44:06.294Z,41.99
2022-08-30T03:44:41.768Z,42.24
2022-08-30T03:45:18.200Z,42.02
2022-08-30T03:45:50.548Z,42.09
2022-08-30T03:46:23.201Z,41.95
2022-08-30T03:47:03.982Z,42.02
2022-08-30T03:47:36.356Z,42.09
2022-08-30T03:48:09.883Z,42.00
2022-08-30T03:48:47.396Z,42.07
2022-08-30T03:49:22.880Z,41.92
2022-08-30T03:49:56.782Z,42.08
2022-08-30T03:50:32.526Z,42.18
2022-08-30T03:51:06.161Z,41.97
2022-08-30T03:51:40.397Z,41.97
2022-08-30T03:52:17.389Z,42.10
2022-08-30T03:52:51.282Z,42.24
2022-08-30T03:53:27.361Z,42.01
2022-08-30T03:54:03.849Z,42.00
2022-08-30T03:54:36.216Z,42.00
2022-08-30T03:55:10.347Z,41.95
2022-08-30T03:55:51.905Z,41.96
2022-08-30T03:56:25.002Z,41.67
2022-08-30T03:57:02.778Z,42.00
2022-08-30T03:57:36.621Z,42.04
2022-08-30T03:58:11.845Z,41.73
2022-08-30T03:58:44.656Z,42.00
2022-08-30T03:59:17.238Z,41.63
2022-08-30T03:59:52.445Z,41.80
2022-08-30T04:00:26.736Z,42.00
2022-08-30T04:01:01.795Z,41.83
2022-08-30T04:01:34.137Z,41.83
2022-08-30T04:02:07.051Z,41.69
2022-08-30T04:02:42.157Z,41.83
2022-08-30T04:03:14.798Z,41.97
2022-08-30T04:03:47.174Z,41.95
2022-08-30T04:04:22.077Z,41.89
2022-08-30T04:04:54.412Z,41.95
2022-08-30T04:05:27.436Z,41.90
2022-08-30T04:06:02.513Z,41.74
2022-08-30T04:06:34.870Z,41.84
2022-08-30T04:07:09.542Z,41.85
2022-08-30T04:07:46.262Z,42.07
2022-08-30T04:08:18.635Z,41.88
2022-08-30T04:08:52.236Z,41.59
2022-08-30T04:09:28.674Z,41.78
2022-08-30T04:10:02.825Z,41.89
2022-08-30T04:10:37.174Z,41.62
2022-08-30T04:11:12.933Z,41.61
2022-08-30T04:11:51.459Z,42.09
2022-08-30T04:12:26.442Z,41.69
2022-08-30T04:13:02.087Z,41.86
2022-08-30T04:13:34.945Z,42.00
2022-08-30T04:14:10.412Z,41.58
2022-08-30T04:14:51.155Z,41.89
2022-08-30T04:15:23.507Z,41.71
2022-08-30T04:15:56.202Z,41.81
2022-08-30T04:16:32.637Z,41.56
2022-08-30T04:17:05.279Z,41.56
2022-08-30T04:17:37.680Z,41.81
2022-08-30T04:18:20.410Z,41.63
2022-08-30T04:18:53.316Z,41.56
2022-08-30T04:19:28.460Z,41.73
2022-08-30T04:20:01.104Z,41.71
2022-08-30T04:20:34.208Z,41.73
2022-08-30T04:21:14.107Z,41.83
2022-08-30T04:21:48.911Z,41.85
2022-08-30T04:22:23.855Z,41.75
2022-08-30T04:22:58.951Z,41.93
2022-08-30T04:23:34.408Z,41.68
2022-08-30T04:24:06.889Z,41.78
2022-08-30T04:24:50.901Z,41.75
2022-08-30T04:25:23.773Z,41.78
2022-08-30T04:25:58.166Z,42.03
2022-08-30T04:26:34.312Z,41.50
2022-08-30T04:27:08.958Z,41.68
2022-08-30T04:27:45.517Z,41.62
2022-08-30T04:28:23.622Z,41.98
2022-08-30T04:28:57.292Z,42.32
2022-08-30T04:29:33.735Z,42.02
2022-08-30T04:30:12.233Z,41.51
2022-08-30T04:30:45.098Z,41.61
2022-08-30T04:31:20.588Z,41.71
2022-08-30T04:31:57.418Z,41.88
2022-08-30T04:32:31.023Z,41.77
2022-08-30T04:33:03.479Z,41.76
2022-08-30T04:33:38.860Z,41.98
2022-08-30T04:34:11.962Z,41.79
2022-08-30T04:34:46.734Z,41.71
2022-08-30T04:35:27.046Z,42.02
2022-08-30T04:36:03.739Z,41.83
2022-08-30T04:36:36.355Z,41.39
2022-08-30T04:37:11.369Z,41.46
2022-08-30T04:37:43.858Z,41.79
2022-08-30T04:38:17.424Z,41.58
2022-08-30T04:38:52.643Z,41.54
2022-08-30T04:39:25.021Z,41.61
2022-08-30T04:39:57.895Z,41.61
2022-08-30T04:40:33.077Z,41.63
2022-08-30T04:41:12.229Z,41.85
2022-08-30T04:41:46.562Z,41.60
2022-08-30T04:42:21.666Z,41.68
2022-08-30T04:42:57.110Z,41.36
2022-08-30T04:43:31.097Z,41.89
2022-08-30T04:44:06.607Z,41.57
2022-08-30T04:44:41.469Z,41.61
2022-08-30T04:45:16.450Z,41.53
2022-08-30T04:45:52.493Z,41.44
2022-08-30T04:46:24.861Z,41.83
2022-08-30T04:46:57.149Z,41.58
2022-08-30T04:47:32.074Z,41.75
2022-08-30T04:48:04.533Z,41.46
2022-08-30T04:48:37.494Z,41.77
2022-08-30T04:49:12.386Z,41.51
2022-08-30T04:49:44.729Z,41.51
2022-08-30T04:50:18.845Z,41.32
2022-08-30T04:50:53.982Z,41.45
2022-08-30T04:51:26.298Z,41.53
2022-08-30T04:52:01.202Z,41.29
2022-08-30T04:52:33.576Z,41.73
2022-08-30T04:53:05.914Z,41.55
2022-08-30T04:53:41.113Z,41.47
2022-08-30T04:54:13.417Z,41.34
2022-08-30T04:54:48.667Z,41.54
2022-08-30T04:55:21.820Z,41.74
2022-08-30T04:55:54.145Z,41.32
2022-08-30T04:56:29.486Z,41.37
2022-08-30T04:57:01.919Z,41.28
2022-08-30T04:57:34.433Z,41.50
2022-08-30T04:58:12.142Z,41.59
2022-08-30T04:58:44.996Z,41.35
2022-08-30T04:59:19.905Z,41.27
2022-08-30T04:59:52.305Z,41.39
2022-08-30T05:00:24.711Z,41.83
2022-08-30T05:00:59.678Z,41.06
2022-08-30T05:01:33.143Z,41.64
2022-08-30T05:02:20.781Z,41.54
2022-08-30T05:02:53.282Z,41.44
2022-08-30T05:03:25.603Z,41.60
2022-08-30T05:04:01.009Z,41.63
2022-08-30T05:04:33.397Z,41.54
2022-08-30T05:05:21.913Z,41.33
2022-08-30T05:05:54.411Z,41.85
2022-08-30T05:06:31.580Z,41.85
2022-08-30T05:07:04.114Z,41.64
2022-08-30T05:07:36.660Z,41.46
2022-08-30T05:08:12.630Z,41.64
2022-08-30T05:08:46.145Z,41.50
2022-08-30T05:09:21.873Z,41.71
2022-08-30T05:09:54.218Z,41.89
2022-08-30T05:10:28.684Z,41.95
2022-08-30T05:11:06.841Z,41.64
2022-08-30T05:11:39.166Z,41.84
2022-08-30T05:12:11.505Z,41.83
2022-08-30T05:12:48.366Z,42.01
2022-08-30T05:13:24.349Z,41.94
2022-08-30T05:14:10.341Z,42.04
2022-08-30T05:14:42.657Z,42.04
2022-08-30T05:15:18.149Z,41.61
2022-08-30T05:15:53.166Z,41.52
2022-08-30T05:16:26.759Z,41.71
2022-08-30T05:16:59.143Z,41.93
2022-08-30T05:17:34.063Z,41.83
2022-08-30T05:18:08.011Z,41.68
2022-08-30T05:18:45.013Z,42.10
2022-08-30T05:19:19.933Z,41.75
2022-08-30T05:19:52.285Z,42.07
2022-08-30T05:20:24.683Z,42.14
2022-08-30T05:21:07.033Z,41.84
2022-08-30T05:21:41.305Z,41.36
2022-08-30T05:22:16.382Z,41.58
2022-08-30T05:22:53.379Z,41.22
2022-08-30T05:23:28.958Z,41.80
2022-08-30T05:24:01.772Z,41.53
2022-08-30T05:24:34.656Z,41.15
2022-08-30T05:25:08.042Z,41.51
2022-08-30T05:25:44.614Z,41.56
2022-08-30T05:26:19.118Z,41.23
2022-08-30T05:26:51.551Z,41.25
2022-08-30T05:27:26.515Z,41.26
2022-08-30T05:27:59.470Z,41.04
2022-08-30T05:28:34.776Z,40.87
2022-08-30T05:29:09.918Z,41.11
2022-08-30T05:29:42.257Z,41.16
2022-08-30T05:30:16.323Z,40.86
2022-08-30T05:30:51.329Z,40.60
2022-08-30T05:31:25.496Z,40.74
2022-08-30T05:31:58.030Z,40.56
2022-08-30T05:32:32.961Z,40.55
2022-08-30T05:33:05.359Z,40.69
2022-08-30T05:33:38.891Z,40.60
2022-08-30T05:34:14.090Z,40.59
2022-08-30T05:34:46.429Z,40.66
2022-08-30T05:35:24.889Z,40.41
2022-08-30T05:36:00.592Z,40.64
2022-08-30T05:36:35.894Z,40.62
2022-08-30T05:37:08.206Z,40.59
2022-08-30T05:37:43.790Z,40.65
2022-08-30T05:38:16.219Z,40.71
2022-08-30T05:38:48.574Z,40.55
2022-08-30T05:39:23.953Z,40.43
2022-08-30T05:39:56.785Z,40.57
2022-08-30T05:40:31.822Z,40.53
2022-08-30T05:41:10.680Z,40.61
2022-08-30T05:41:43.457Z,40.17
2022-08-30T05:42:18.793Z,40.83
2022-08-30T05:42:51.217Z,40.25
2022-08-30T05:43:23.561Z,40.59
2022-08-30T05:44:07.058Z,40.48
2022-08-30T05:44:39.371Z,40.17
2022-08-30T05:45:19.393Z,40.52
2022-08-30T05:45:59.129Z,40.18
2022-08-30T05:46:35.642Z,40.05
2022-08-30T05:47:07.945Z,39.92
2022-08-30T05:47:40.797Z,40.27
2022-08-30T05:48:15.951Z,40.26
2022-08-30T05:48:48.750Z,40.17
2022-08-30T05:49:21.041Z,40.01
2022-08-30T05:49:56.282Z,39.91
2022-08-30T05:50:28.629Z,40.17
2022-08-30T05:51:08.790Z,40.24
2022-08-30T05:51:43.467Z,40.24
2022-08-30T05:52:18.294Z,40.33
2022-08-30T05:52:53.226Z,39.95
2022-08-30T05:53:25.645Z,39.87
2022-08-30T05:53:58.979Z,39.92
2022-08-30T05:54:33.894Z,40.37
2022-08-30T05:55:07.882Z,40.22
2022-08-30T05:55:41.632Z,39.72
2022-08-30T05:56:18.539Z,39.68
2022-08-30T05:56:50.926Z,39.87
2022-08-30T05:57:23.274Z,40.03
2022-08-30T05:57:58.228Z,40.04
2022-08-30T05:58:30.987Z,40.03
2022-08-30T05:59:07.274Z,40.05
2022-08-30T05:59:42.184Z,39.73
2022-08-30T06:00:18.124Z,40.01
2022-08-30T06:00:53.045Z,40.08
2022-08-30T06:01:27.209Z,40.31
2022-08-30T06:01:59.781Z,39.93
2022-08-30T06:02:34.798Z,39.84
2022-08-30T06:03:07.224Z,39.91
2022-08-30T06:03:39.590Z,40.06
2022-08-30T06:04:15.151Z,39.94
2022-08-30T06:04:47.480Z,39.89
2022-08-30T06:05:20.006Z,40.12
2022-08-30T06:05:56.042Z,39.84
2022-08-30T06:06:29.053Z,39.63
2022-08-30T06:07:01.379Z,39.95
2022-08-30T06:07:36.875Z,40.21
2022-08-30T06:08:09.234Z,39.81
2022-08-30T06:08:42.574Z,40.03
2022-08-30T06:09:18.647Z,40.04
2022-08-30T06:09:50.964Z,39.80
2022-08-30T06:10:25.890Z,39.93
2022-08-30T06:10:58.194Z,39.94
2022-08-30T06:11:30.714Z,39.94
2022-08-30T06:12:06.318Z,40.12
2022-08-30T06:12:38.637Z,39.91
2022-08-30T06:13:10.961Z,39.83
2022-08-30T06:13:46.065Z,39.85
2022-08-30T06:14:21.431Z,39.85
2022-08-30T06:14:53.791Z,39.86
2022-08-30T06:15:28.722Z,39.70
2022-08-30T06:16:01.097Z,39.86
2022-08-30T06:16:34.614Z,39.87
2022-08-30T06:17:10.795Z,39.77
2022-08-30T06:17:43.145Z,39.79
2022-08-30T06:18:15.694Z,40.05
2022-08-30T06:18:51.290Z,40.19
2022-08-30T06:19:23.606Z,39.94
2022-08-30T06:19:55.969Z,40.22
2022-08-30T06:20:30.978Z,40.11
2022-08-30T06:21:03.545Z,40.21
2022-08-30T06:21:37.174Z,40.17
2022-08-30T06:22:12.081Z,40.05
2022-08-30T06:22:44.406Z,39.92
2022-08-30T06:23:17.742Z,39.84
2022-08-30T06:23:53.126Z,40.43
2022-08-30T06:24:41.137Z,40.23
2022-08-30T06:25:21.479Z,40.25
2022-08-30T06:25:53.790Z,40.17
2022-08-30T06:26:26.602Z,40.28
2022-08-30T06:27:01.543Z,40.57
2022-08-30T06:27:33.877Z,40.45
2022-08-30T06:28:09.785Z,40.48
2022-08-30T06:28:42.341Z,40.50
2022-08-30T06:29:18.538Z,40.28
2022-08-30T06:29:54.323Z,40.47
2022-08-30T06:30:29.262Z,40.79
2022-08-30T06:31:01.645Z,40.58
2022-08-30T06:31:34.175Z,40.28
2022-08-30T06:32:09.254Z,40.68
2022-08-30T06:32:41.568Z,40.43
2022-08-30T06:33:13.905Z,40.66
2022-08-30T06:33:49.432Z,40.98
2022-08-30T06:34:21.711Z,41.07
2022-08-30T06:34:54.073Z,41.16
2022-08-30T06:35:30.693Z,40.92
2022-08-30T06:36:06.365Z,41.15
2022-08-30T06:36:41.531Z,41.05
2022-08-30T06:37:29.027Z,40.87
2022-08-30T06:38:04.897Z,41.04
2022-08-30T06:38:37.491Z,41.39
2022-08-30T06:39:13.530Z,41.06
2022-08-30T06:39:45.837Z,40.78
2022-08-30T06:40:20.845Z,41.15
2022-08-30T06:40:55.755Z,41.05
2022-08-30T06:41:30.544Z,40.71
2022-08-30T06:42:02.922Z,40.88
2022-08-30T06:42:41.107Z,40.97
2022-08-30T06:43:13.487Z,41.08
2022-08-30T06:43:49.082Z,40.74
2022-08-30T06:44:24.337Z,40.99
2022-08-30T06:44:59.665Z,40.69
2022-08-30T06:45:34.610Z,41.05
2022-08-30T06:46:10.568Z,40.98
2022-08-30T06:46:45.573Z,41.00
2022-08-30T06:47:17.925Z,40.99
2022-08-30T06:47:50.322Z,40.98
2022-08-30T06:48:25.344Z,40.74
2022-08-30T06:48:57.894Z,41.12
2022-08-30T06:49:30.266Z,41.10
2022-08-30T06:50:05.258Z,40.91
2022-08-30T06:50:37.994Z,41.15
2022-08-30T06:51:10.323Z,41.15
2022-08-30T06:51:45.343Z,41.11
2022-08-30T06:52:17.986Z,41.15
2022-08-30T06:52:54.108Z,41.14
2022-08-30T06:53:30.089Z,41.22
2022-08-30T06:54:10.937Z,41.32
2022-08-30T06:54:44.515Z,41.13
2022-08-30T06:55:18.262Z,41.43
2022-08-30T06:55:59.149Z,41.43
2022-08-30T06:56:31.495Z,40.96
2022-08-30T06:57:06.624Z,41.39
2022-08-30T06:57:40.017Z,41.25
2022-08-30T06:58:12.341Z,40.98
2022-08-30T06:58:48.361Z,41.29
2022-08-30T06:59:20.788Z,41.34
2022-08-30T07:00:02.509Z,41.25
2022-08-30T07:00:34.944Z,41.38
2022-08-30T07:01:12.810Z,41.43
2022-08-30T07:01:48.212Z,41.65
2022-08-30T07:02:20.594Z,41.29
2022-08-30T07:02:53.129Z,41.51
2022-08-30T07:03:28.222Z,41.58
2022-08-30T07:04:01.306Z,41.61
2022-08-30T07:04:36.521Z,41.55
2022-08-30T07:05:15.360Z,41.87
2022-08-30T07:05:50.769Z,41.63
2022-08-30T07:06:26.617Z,41.78
2022-08-30T07:06:59.001Z,41.75
2022-08-30T07:07:31.342Z,41.86
2022-08-30T07:08:06.759Z,41.58
2022-08-30T07:08:39.270Z,41.51
2022-08-30T07:09:11.630Z,41.49
2022-08-30T07:09:49.326Z,41.49
2022-08-30T07:10:21.962Z,41.62
2022-08-30T07:10:54.687Z,41.73
2022-08-30T07:11:32.810Z,41.88
2022-08-30T07:12:06.822Z,41.66
2022-08-30T07:12:39.210Z,41.66
2022-08-30T07:13:14.711Z,41.69
2022-08-30T07:13:47.151Z,41.64
2022-08-30T07:14:19.791Z,41.47
2022-08-30T07:14:55.189Z,42.04
2022-08-30T07:15:30.162Z,42.06
2022-08-30T07:16:13.676Z,41.88
2022-08-30T07:16:46.314Z,41.86
2022-08-30T07:17:38.225Z,41.92
2022-08-30T07:18:26.222Z,41.95
2022-08-30T07:19:02.905Z,41.67
2022-08-30T07:19:35.449Z,41.81
2022-08-30T07:20:09.285Z,42.13
2022-08-30T07:20:41.633Z,41.88
2022-08-30T07:21:19.033Z,42.19
2022-08-30T07:21:51.401Z,41.86
2022-08-30T07:22:23.709Z,41.96
2022-08-30T07:22:58.790Z,42.24
2022-08-30T07:23:31.105Z,42.10
2022-08-30T07:24:04.038Z,41.99
2022-08-30T07:24:41.006Z,42.19
2022-08-30T07:25:13.665Z,42.52
2022-08-30T07:25:46.557Z,42.15